• Join FlightAware (Why Join?)
  • Login
  • US Flag 
06:41PM EDT


 

Airport Tracker/Info


-or-


 

Live Flight TrackerFlight Track Log ✈ N775NC ✈ 23-Oct-2013 ✈ KSAV - KATL

Flight Track Log - Related Links

Times and Time Zones

All times are in EDT time to prevent confusion due to time zone crossing. See the N775NC flight status page for this flight to view local times or setup timezone preferences in your user account.

Time Position Orientation Groundspeed Altitude Reporting Facility
EDT Latitude Longitude Course Direction KTS MPH feet Rate Location/Type
06:51AM 32.1303 -81.3692 276° West 221 254 5,100  Level Jacksonville Center
06:52AM 32.2830 -81.5215 288° West  Level Estimated
06:52AM 32.1542 -81.4472 290° West 246 283 8,200  Level Jacksonville Center
06:53AM 32.2878 -81.6135 274° West  Level FlightAware Approximate
06:53AM 32.1906 -81.5203 300° West 257 296 10,800  Level Jacksonville Center
06:54AM 32.3274 -81.6930 287° West  Level Estimated
06:54AM 32.2289 -81.6081 297° West 285 328 12,700  Level Jacksonville Center
06:55AM 32.3360 -81.7846 276° West  Level FlightAware Approximate
06:56AM 32.3019 -81.7781 297° West 299 344 17,200  Level Atlanta Center
06:57AM 32.3411 -81.8706 297° West 311 358 19,000 1,380 Climbing Atlanta Center
06:58AM 32.3764 -81.9706 293° West 326 375 20,000 480 Climbing Atlanta Center
06:59AM 32.3906 -82.0858 278° West 337 388 20,000  Level Atlanta Center
07:00AM 32.4050 -82.2011 278° West 353 406 20,000  Level Atlanta Center
07:01AM 32.4172 -82.3239 277° West 367 422 20,000  Level Atlanta Center
07:02AM 32.4375 -82.4464 281° West 374 430 20,000  Level Atlanta Center
07:03AM 32.4828 -82.5614 295° West 374 430 20,000  Level Atlanta Center
07:04AM 32.5258 -82.6742 294° West 381 438 20,000  Level Atlanta Center
07:05AM 32.5708 -82.7769 297° West 375 432 20,000  Level Atlanta Center
07:06AM 32.6281 -82.8697 306° West 356 410 20,000  Level Atlanta Center
07:07AM 32.7042 -82.9625 314° West 349 402 20,000  Level Atlanta Center
07:08AM 32.7383 -83.0608 292° West 344 396 20,000  Level Atlanta Center
07:09AM 32.7808 -83.1567 298° West 330 380 20,000  Level Atlanta Center
07:10AM 32.8333 -83.2206 314° West 317 365 20,000 -540 Level Atlanta Center
07:11AM 32.9008 -83.3089 312° West 323 372 19,000 -1,800 Descending Atlanta Center
07:12AM 32.9597 -83.3878 312° West 318 366 16,400 -2,640 Descending Atlanta Center
07:13AM 33.0183 -83.4567 315° West 311 358 13,800 -2,100 Descending Atlanta Center
07:14AM 33.0647 -83.5381 304° West 306 352 12,200 -900 Descending Atlanta Center
07:15AM 33.1047 -83.6222 300° West 286 329 12,000 -120 Descending Atlanta Center
07:16AM 33.1550 -83.6964 309° West 286 329 12,000  Level Atlanta Center
07:17AM 33.1950 -83.7658 305° West 286 329 12,000 -240 Level Atlanta Center
07:18AM 33.2431 -83.8400 308° West 286 329 11,600 -960 Descending Atlanta Center
07:19AM 33.2892 -83.9047 310° West 275 316 10,100 -1,560 Descending Atlanta Center
07:20AM 33.3267 -83.9692 305° West 251 289 8,500 -1,740 Descending Atlanta Center
07:21AM 33.3725 -84.0264 314° West 240 276 6,700 -1,860 Descending Atlanta Center
07:22AM 33.4311 -84.0661 331° Northwest 235 270 4,800 -1,380 Descending Atlanta Center
07:23AM 33.4894 -84.1161 324° Northwest 240 276 4,000 -900 Descending Atlanta Center
07:23AM 33.5167 -84.1333 332° Northwest 196 226 3,500 -660 Descending Atlanta TRACON
07:24AM 33.5667 -84.1667 331° Northwest 194 223 3,000 -240 Descending Atlanta TRACON
07:25AM 33.6000 -84.2000 320° Northwest 146 168 3,100  Climbing Atlanta TRACON
07:26AM 33.6167 -84.2333 301° West 150 173 3,100  Level Atlanta TRACON
07:27AM 33.6333 -84.2833 292° West 138 159 3,100 -420 Level Atlanta TRACON
07:28AM 33.6333 -84.3333 270° West 135 155 2,400 -600 Descending Atlanta TRACON
07:29AM 33.6333 -84.3667 270° West 112 129 1,900 -600 Descending Atlanta TRACON
07:30AM 33.6333 -84.4000 270° West 120 138 1,300 -600 Descending Atlanta TRACON